Time;durP1;ratioP1;P1;durP2;ratioP2;P2;SDS_P1;SDS_P2;PMS_P1;PMS_P2;Temp;Humidity;BMP_temperature;BMP_pressure;BME280_temperature;BME280_humidity;BME280_pressure;Samples;Min_cycle;Max_cycle;Signal;HPM_P1;HPM_P2
2021/03/19 00:00:16;;;;;;;23.43;11.70;;;2.80;99.70;;;;;;5010648;28;20872;-72
2021/03/19 00:02:42;;;;;;;20.93;11.30;;;3.10;99.70;;;;;;5010402;28;20456;-72
2021/03/19 00:05:11;;;;;;;22.37;11.57;;;3.10;99.70;;;;;;5012010;28;20480;-72
2021/03/19 00:07:45;;;;;;;18.67;10.10;;;2.90;99.70;;;;;;5009946;28;20449;-71
2021/03/19 00:10:17;;;;;;;24.00;11.20;;;2.70;99.70;;;;;;5010729;28;20507;-72
2021/03/19 00:12:44;;;;;;;20.07;11.27;;;2.60;99.70;;;;;;5010166;28;20446;-72
2021/03/19 00:15:11;;;;;;;20.10;10.67;;;2.70;99.70;;;;;;5009951;28;20469;-72
2021/03/19 00:17:37;;;;;;;18.00;9.50;;;2.70;99.70;;;;;;5011261;28;20456;-69
2021/03/19 00:20:05;;;;;;;20.03;8.50;;;2.70;99.70;;;;;;5011513;28;20573;-72
2021/03/19 00:22:31;;;;;;;16.93;8.30;;;2.70;99.70;;;;;;5009966;28;20450;-72
2021/03/19 00:24:57;;;;;;;17.37;9.17;;;3.20;99.70;;;;;;5009513;28;20472;-71
2021/03/19 00:27:24;;;;;;;34.23;15.20;;;3.00;99.70;;;;;;5009922;28;20456;-72
2021/03/19 00:29:51;;;;;;;19.87;10.53;;;2.70;99.70;;;;;;5009632;28;20446;-71
2021/03/19 00:32:17;;;;;;;19.37;8.80;;;2.50;99.70;;;;;;5009940;28;20453;-72
2021/03/19 00:34:43;;;;;;;24.43;9.00;;;2.40;99.70;;;;;;5009428;28;20503;-72
2021/03/19 00:37:09;;;;;;;18.27;9.40;;;2.60;99.70;;;;;;5009761;28;20879;-71
2021/03/19 00:39:36;;;;;;;17.03;9.03;;;2.50;99.70;;;;;;5009913;28;20445;-72
2021/03/19 00:42:03;;;;;;;16.20;8.90;;;2.40;99.70;;;;;;5009831;28;20453;-72
2021/03/19 00:44:30;;;;;;;16.60;8.87;;;2.50;99.70;;;;;;5009977;28;20442;-72
2021/03/19 00:46:56;;;;;;;17.33;8.50;;;2.50;99.70;;;;;;5008983;28;20457;-72
2021/03/19 00:49:22;;;;;;;20.27;8.87;;;2.50;99.70;;;;;;5010004;28;20441;-72
2021/03/19 00:51:48;;;;;;;17.23;8.70;;;2.50;99.70;;;;;;5009588;28;20969;-72
2021/03/19 00:54:15;;;;;;;16.47;9.10;;;2.40;99.70;;;;;;5010182;28;20468;-72
2021/03/19 00:56:41;;;;;;;19.57;9.33;;;2.40;99.70;;;;;;5009134;28;20519;-71
2021/03/19 00:59:07;;;;;;;18.60;9.50;;;2.30;99.70;;;;;;5009869;28;20969;-72
2021/03/19 01:01:35;;;;;;;19.20;9.17;;;2.20;99.70;;;;;;5009436;28;21064;-71
2021/03/19 01:04:01;;;;;;;20.77;10.13;;;2.10;99.70;;;;;;5009753;28;20449;-71
2021/03/19 01:06:27;;;;;;;22.30;9.80;;;2.00;99.70;;;;;;5009598;28;20472;-71
2021/03/19 01:08:54;;;;;;;18.93;10.00;;;2.00;99.70;;;;;;5009564;28;20811;-72
2021/03/19 01:11:20;;;;;;;18.90;9.60;;;2.00;99.70;;;;;;5013777;28;20442;-71
2021/03/19 01:13:46;;;;;;;20.57;10.27;;;1.90;99.70;;;;;;5013470;28;20456;-71
2021/03/19 01:16:12;;;;;;;20.23;9.60;;;1.90;99.70;;;;;;5012956;28;20469;-72
2021/03/19 01:18:39;;;;;;;22.10;10.90;;;1.90;99.70;;;;;;5012994;28;20835;-72
2021/03/19 01:21:06;;;;;;;23.33;11.40;;;1.90;99.70;;;;;;5013266;28;20485;-72
2021/03/19 01:23:32;;;;;;;20.93;10.70;;;1.80;99.70;;;;;;5012968;28;20472;-72
2021/03/19 01:25:59;;;;;;;24.07;10.83;;;1.90;99.70;;;;;;5012944;28;20477;-72
2021/03/19 01:28:25;;;;;;;23.50;11.23;;;1.80;99.70;;;;;;5012926;28;20441;-71
2021/03/19 01:30:52;;;;;;;23.87;11.20;;;1.90;99.70;;;;;;5013180;28;20442;-72
2021/03/19 01:33:19;;;;;;;21.33;11.40;;;1.80;99.70;;;;;;5012971;28;20449;-72
2021/03/19 01:35:46;;;;;;;21.10;10.80;;;1.80;99.70;;;;;;5012331;28;20978;-72
2021/03/19 01:38:13;;;;;;;24.33;11.10;;;1.80;99.70;;;;;;5013149;28;20450;-72
2021/03/19 01:40:41;;;;;;;24.33;11.17;;;1.70;99.70;;;;;;5012756;28;20896;-72
2021/03/19 01:43:10;;;;;;;22.73;10.97;;;1.70;99.70;;;;;;5013126;28;20876;-71
2021/03/19 01:46:09;;;;;;;22.77;10.80;;;1.70;99.70;;;;;;5012229;28;20477;-71
2021/03/19 01:49:12;;;;;;;20.77;9.97;;;1.70;99.70;;;;;;4982132;28;20441;-72
2021/03/19 01:52:16;;;;;;;20.80;10.13;;;1.70;99.70;;;;;;5012278;28;20429;-72
2021/03/19 01:55:19;;;;;;;28.20;11.97;;;1.70;99.70;;;;;;5012808;28;20822;-72
2021/03/19 01:58:23;;;;;;;26.80;10.83;;;1.70;99.70;;;;;;5012394;28;20445;-72
2021/03/19 02:01:26;;;;;;;24.57;11.80;;;1.70;99.70;;;;;;5012702;28;20481;-72
2021/03/19 02:04:30;;;;;;;21.90;10.60;;;1.70;99.70;;;;;;5012539;28;20467;-72
2021/03/19 02:07:33;;;;;;;22.93;11.00;;;1.60;99.70;;;;;;5011828;28;20445;-72
2021/03/19 02:10:37;;;;;;;24.97;11.33;;;1.60;99.70;;;;;;5012440;28;20453;-72
2021/03/19 02:13:40;;;;;;;25.20;12.10;;;1.60;99.70;;;;;;5011911;28;20453;-71
2021/03/19 02:16:43;;;;;;;24.73;11.13;;;1.60;99.70;;;;;;5011658;28;20500;-72
2021/03/19 02:19:47;;;;;;;28.93;11.70;;;1.50;99.70;;;;;;5012220;28;20948;-72
2021/03/19 02:22:51;;;;;;;22.37;11.40;;;1.50;99.70;;;;;;5012476;28;20444;-72
2021/03/19 02:25:54;;;;;;;26.70;11.93;;;1.50;99.70;;;;;;5012170;28;20461;-72
2021/03/19 02:28:58;;;;;;;24.33;11.40;;;1.50;99.70;;;;;;5011534;28;20437;-72
2021/03/19 02:31:54;;;;;;;24.70;11.87;;;1.50;99.70;;;;;;5012200;28;20437;-72
2021/03/19 02:34:22;;;;;;;25.27;11.50;;;1.50;99.70;;;;;;5011450;28;20491;-72
2021/03/19 02:36:49;;;;;;;23.60;11.60;;;1.40;99.70;;;;;;5011639;28;20471;-72
2021/03/19 02:39:15;;;;;;;21.70;10.77;;;1.50;99.70;;;;;;5011615;28;20832;-72
2021/03/19 02:41:41;;;;;;;24.70;11.47;;;1.60;99.70;;;;;;5012012;28;20482;-71
2021/03/19 02:44:07;;;;;;;22.97;11.90;;;1.50;99.70;;;;;;5011973;28;20870;-72
2021/03/19 02:46:35;;;;;;;32.10;11.60;;;1.50;99.70;;;;;;5011859;28;20470;-72
2021/03/19 02:49:01;;;;;;;27.03;12.47;;;1.50;99.70;;;;;;5011765;28;20468;-71
2021/03/19 02:51:27;;;;;;;21.80;11.10;;;1.50;99.70;;;;;;5011315;28;20947;-72
2021/03/19 02:53:53;;;;;;;23.67;11.10;;;1.50;99.70;;;;;;5011798;28;20445;-72
2021/03/19 02:56:19;;;;;;;21.77;10.93;;;1.50;99.70;;;;;;5011082;28;20466;-71
2021/03/19 02:58:46;;;;;;;22.90;10.50;;;1.50;99.70;;;;;;5011508;28;20456;-72
2021/03/19 03:01:12;;;;;;;22.97;10.97;;;1.70;99.70;;;;;;5011067;28;20914;-72
2021/03/19 03:03:39;;;;;;;22.37;10.53;;;1.70;99.70;;;;;;5011592;28;20450;-71
2021/03/19 03:06:06;;;;;;;26.60;12.03;;;1.60;99.70;;;;;;5010689;28;20853;-71
2021/03/19 03:08:33;;;;;;;23.30;11.10;;;1.60;99.70;;;;;;5010889;28;20441;-72
2021/03/19 03:11:00;;;;;;;23.87;10.90;;;1.70;99.70;;;;;;5011292;28;20496;-72
2021/03/19 03:13:26;;;;;;;23.63;11.17;;;1.70;99.70;;;;;;5011185;28;20449;-72
2021/03/19 03:15:52;;;;;;;21.67;10.57;;;1.70;99.70;;;;;;5010594;28;20906;-72
2021/03/19 03:21:01;;;;;;;24.47;11.67;;;1.70;99.70;;;;;;5029036;28;20484;-72
2021/03/19 03:23:28;;;;;;;27.37;12.47;;;1.70;99.70;;;;;;5030133;28;20445;-72
2021/03/19 03:25:56;;;;;;;24.83;12.10;;;1.60;99.70;;;;;;5029961;28;20506;-72
2021/03/19 03:28:24;;;;;;;24.13;11.93;;;1.70;99.70;;;;;;5029235;28;20510;-72
2021/03/19 03:30:52;;;;;;;24.63;12.77;;;1.60;99.70;;;;;;5011326;28;20480;-72
2021/03/19 03:33:19;;;;;;;27.23;12.40;;;1.50;99.70;;;;;;5010230;28;20468;-72
2021/03/19 03:35:46;;;;;;;27.30;12.07;;;1.50;99.70;;;;;;5010123;28;20464;-72
2021/03/19 03:38:16;;;;;;;28.70;12.33;;;1.40;99.70;;;;;;5010519;28;20445;-70
2021/03/19 03:40:45;;;;;;;24.80;11.70;;;1.50;99.70;;;;;;5010591;28;20922;-70
2021/03/19 03:43:13;;;;;;;24.47;11.70;;;1.50;99.70;;;;;;5010813;28;20519;-71
2021/03/19 03:45:40;;;;;;;29.97;12.27;;;1.50;99.70;;;;;;5010096;28;20445;-70
2021/03/19 03:48:07;;;;;;;22.20;11.67;;;1.50;99.70;;;;;;5010277;28;20453;-71
2021/03/19 03:50:34;;;;;;;24.17;11.90;;;1.50;99.70;;;;;;5010076;28;20909;-71
2021/03/19 03:53:00;;;;;;;25.57;11.57;;;1.50;99.70;;;;;;5010534;28;20445;-71
2021/03/19 03:55:27;;;;;;;23.50;11.73;;;1.70;99.70;;;;;;5009706;28;20955;-71
2021/03/19 03:57:53;;;;;;;25.87;13.13;;;1.80;99.70;;;;;;5010161;28;20449;-71
2021/03/19 04:00:23;;;;;;;25.57;12.20;;;1.70;99.70;;;;;;5010183;28;20482;-71
2021/03/19 04:02:49;;;;;;;21.33;11.67;;;1.70;99.70;;;;;;5010172;28;20454;-71
2021/03/19 04:05:21;;;;;;;23.27;11.37;;;1.70;99.70;;;;;;5009910;28;20442;-71
2021/03/19 04:07:48;;;;;;;19.97;10.27;;;1.80;99.70;;;;;;5010014;28;20511;-71
2021/03/19 04:10:14;;;;;;;24.53;12.00;;;2.10;99.70;;;;;;5010135;28;20469;-71
2021/03/19 04:12:41;;;;;;;28.97;13.10;;;2.10;99.70;;;;;;5010432;28;20457;-71
2021/03/19 04:15:08;;;;;;;24.07;11.70;;;1.90;99.70;;;;;;5009599;28;20499;-72
2021/03/19 04:17:35;;;;;;;28.03;13.50;;;1.80;99.70;;;;;;5008757;28;20449;-71
2021/03/19 04:20:04;;;;;;;25.93;13.40;;;2.00;99.70;;;;;;5009786;28;20512;-71
2021/03/19 04:22:30;;;;;;;29.13;14.70;;;1.90;99.70;;;;;;5010167;28;20446;-71
2021/03/19 04:24:56;;;;;;;32.60;13.70;;;2.30;99.70;;;;;;5009455;28;20492;-72
2021/03/19 04:27:27;;;;;;;29.03;14.20;;;2.00;99.70;;;;;;5009592;28;20445;-70
2021/03/19 04:29:55;;;;;;;29.90;14.33;;;2.10;99.70;;;;;;5009855;28;21048;-72
2021/03/19 04:32:21;;;;;;;29.67;14.07;;;1.80;99.70;;;;;;5009941;28;20456;-71
2021/03/19 04:34:47;;;;;;;28.67;14.30;;;1.90;99.70;;;;;;5009718;28;20456;-71
2021/03/19 04:37:14;;;;;;;27.70;13.50;;;1.80;99.70;;;;;;5009082;28;20446;-71
2021/03/19 04:39:43;;;;;;;30.53;14.80;;;1.70;99.70;;;;;;5009724;28;20465;-72
2021/03/19 04:42:11;;;;;;;29.13;14.27;;;1.60;99.70;;;;;;5009735;28;20517;-71
2021/03/19 04:44:40;;;;;;;27.87;13.90;;;1.50;99.70;;;;;;5010947;28;20449;-71
2021/03/19 04:47:07;;;;;;;27.93;13.87;;;1.50;99.70;;;;;;5012922;28;20456;-72
2021/03/19 04:49:34;;;;;;;30.30;14.00;;;1.50;99.70;;;;;;5014003;28;20469;-72
2021/03/19 04:52:01;;;;;;;33.07;14.73;;;1.50;99.70;;;;;;5015342;28;20445;-72
2021/03/19 04:54:28;;;;;;;27.47;13.63;;;1.50;99.70;;;;;;5014538;28;20445;-71
2021/03/19 04:56:54;;;;;;;26.90;13.90;;;1.60;99.70;;;;;;5012976;28;20456;-71
2021/03/19 04:59:21;;;;;;;27.13;13.90;;;1.60;99.70;;;;;;5013516;28;20470;-71
2021/03/19 05:01:49;;;;;;;32.00;15.40;;;1.60;99.70;;;;;;5013413;28;20485;-71
2021/03/19 05:04:17;;;;;;;31.10;15.20;;;1.60;99.70;;;;;;5013737;28;20452;-71
2021/03/19 05:06:43;;;;;;;31.07;15.27;;;1.60;99.70;;;;;;5012544;28;20468;-70
2021/03/19 05:09:10;;;;;;;33.57;14.90;;;1.60;99.70;;;;;;5013552;28;20848;-71
2021/03/19 05:11:37;;;;;;;31.80;15.67;;;1.70;99.70;;;;;;5013424;28;20450;-72
2021/03/19 05:14:03;;;;;;;35.10;16.03;;;1.70;99.70;;;;;;5013324;28;20508;-70
2021/03/19 05:16:30;;;;;;;28.23;15.20;;;1.60;99.70;;;;;;5010847;28;20480;-72
2021/03/19 05:18:56;;;;;;;30.50;14.80;;;1.60;99.70;;;;;;5012710;28;20473;-71
2021/03/19 05:21:23;;;;;;;33.33;15.17;;;1.70;99.70;;;;;;5013089;28;20495;-72
2021/03/19 05:23:49;;;;;;;31.13;14.30;;;1.80;99.70;;;;;;5013168;28;20951;-71
2021/03/19 05:26:16;;;;;;;30.97;15.60;;;1.80;99.70;;;;;;5012775;28;20515;-71
2021/03/19 05:28:42;;;;;;;31.70;14.70;;;1.80;99.70;;;;;;5012740;28;20899;-72
2021/03/19 05:31:08;;;;;;;28.87;13.97;;;1.70;99.70;;;;;;5013095;28;20492;-71
2021/03/19 05:33:44;;;;;;;29.70;15.40;;;1.80;99.70;;;;;;5012925;28;20490;-72
2021/03/19 05:36:11;;;;;;;30.40;14.67;;;1.90;99.70;;;;;;5012345;28;20449;-72
2021/03/19 05:38:38;;;;;;;28.20;14.13;;;1.90;99.70;;;;;;5012580;28;20441;-72
2021/03/19 05:41:05;;;;;;;31.13;14.70;;;1.90;99.70;;;;;;5012814;28;20481;-71
2021/03/19 05:43:35;;;;;;;31.40;14.97;;;1.80;99.70;;;;;;5013067;28;20453;-72
2021/03/19 05:46:06;;;;;;;34.70;15.20;;;1.80;99.70;;;;;;5012363;28;20453;-71
2021/03/19 05:48:39;;;;;;;28.67;13.20;;;1.80;99.70;;;;;;5012521;28;20460;-71
2021/03/19 05:51:06;;;;;;;29.67;13.17;;;2.60;99.70;;;;;;5012727;28;20893;-71
2021/03/19 05:53:41;;;;;;;29.37;14.03;;;2.60;99.70;;;;;;5012768;28;20967;-71
2021/03/19 05:56:13;;;;;;;30.33;14.70;;;2.30;99.70;;;;;;5011640;28;20452;-71
2021/03/19 05:58:39;;;;;;;32.27;14.93;;;2.20;99.70;;;;;;5012253;28;20445;-71
2021/03/19 06:01:06;;;;;;;32.80;15.60;;;2.20;99.70;;;;;;5012173;28;20485;-71
2021/03/19 06:03:32;;;;;;;34.03;16.20;;;2.20;99.70;;;;;;5012512;28;20449;-71
2021/03/19 06:06:01;;;;;;;33.37;15.07;;;2.10;99.70;;;;;;5011958;28;20453;-71
2021/03/19 06:08:30;;;;;;;27.60;13.73;;;2.20;99.70;;;;;;5012055;28;20438;-71
2021/03/19 06:11:19;;;;;;;27.40;14.20;;;2.30;99.70;;;;;;5012280;28;20437;-72
2021/03/19 06:14:00;;;;;;;28.90;14.40;;;2.50;99.70;;;;;;5012191;28;20483;-72
2021/03/19 06:16:35;;;;;;;28.17;14.10;;;2.80;99.70;;;;;;5009484;28;20449;-71
2021/03/19 06:19:05;;;;;;;27.80;13.03;;;3.20;99.70;;;;;;5011751;28;20496;-71
2021/03/19 06:21:34;;;;;;;33.13;14.63;;;3.20;99.70;;;;;;5012231;28;20539;-71
2021/03/19 06:24:21;;;;;;;31.13;15.10;;;2.80;99.70;;;;;;5012079;28;20437;-72
2021/03/19 06:26:48;;;;;;;30.83;15.27;;;2.50;99.70;;;;;;5011096;28;20445;-72
2021/03/19 06:29:22;;;;;;;33.40;15.70;;;2.50;99.70;;;;;;5012182;28;20497;-71
2021/03/19 06:32:04;;;;;;;32.80;15.27;;;2.50;99.70;;;;;;5011952;28;20449;-72
2021/03/19 06:34:31;;;;;;;34.00;15.97;;;2.10;99.70;;;;;;5011911;28;20442;-72
2021/03/19 06:37:00;;;;;;;36.60;16.90;;;2.20;99.70;;;;;;5010897;28;20823;-71
2021/03/19 06:39:30;;;;;;;33.00;16.67;;;2.20;99.70;;;;;;5011895;28;20838;-71
2021/03/19 06:42:27;;;;;;;31.00;15.40;;;2.10;99.70;;;;;;5003063;28;20478;-71
2021/03/19 06:45:05;;;;;;;33.17;15.40;;;2.20;99.70;;;;;;4997981;28;20445;-70
2021/03/19 06:47:38;;;;;;;33.60;17.23;;;2.40;99.70;;;;;;4994831;28;20469;-71
2021/03/19 06:50:06;;;;;;;30.60;16.10;;;2.40;99.70;;;;;;4989969;28;20696;-72
2021/03/19 06:52:34;;;;;;;33.27;15.77;;;2.30;99.70;;;;;;4991107;28;20869;-72
2021/03/19 06:55:02;;;;;;;33.07;15.73;;;2.20;99.70;;;;;;4990591;28;20496;-71
2021/03/19 06:57:43;;;;;;;31.37;15.30;;;2.20;99.70;;;;;;4990008;28;20454;-71
2021/03/19 07:00:12;;;;;;;35.63;15.93;;;2.20;99.70;;;;;;4991021;28;20489;-72
2021/03/19 07:02:59;;;;;;;31.07;14.90;;;2.20;99.70;;;;;;4987649;28;20902;-72
2021/03/19 07:05:45;;;;;;;34.27;16.10;;;2.60;99.70;;;;;;5001648;28;20486;-71
2021/03/19 07:08:19;;;;;;;30.10;14.80;;;2.70;99.70;;;;;;4998180;28;20832;-72
2021/03/19 07:10:58;;;;;;;30.37;14.30;;;2.60;99.70;;;;;;4998742;28;20532;-69
2021/03/19 07:13:49;;;;;;;31.83;13.60;;;2.50;99.70;;;;;;5007142;28;20452;-71
2021/03/19 07:16:18;;;;;;;28.07;13.33;;;2.40;99.70;;;;;;4995668;28;20513;-72
2021/03/19 07:19:02;;;;;;;29.07;13.57;;;3.20;99.70;;;;;;5002123;28;20478;-71
2021/03/19 07:21:57;;;;;;;33.30;15.47;;;3.70;99.70;;;;;;5009426;28;20550;-72
2021/03/19 07:24:42;;;;;;;34.03;16.07;;;3.40;99.70;;;;;;5006836;28;20450;-72
2021/03/19 07:27:26;;;;;;;30.77;14.27;;;3.00;99.70;;;;;;4989452;28;20446;-69
2021/03/19 07:30:04;;;;;;;30.57;15.30;;;3.20;99.70;;;;;;5010708;28;20465;-72
2021/03/19 07:32:49;;;;;;;35.17;15.17;;;3.10;99.70;;;;;;5009860;28;20815;-70
2021/03/19 07:35:30;;;;;;;29.27;13.83;;;3.10;99.70;;;;;;5010949;28;20517;-69
2021/03/19 07:38:35;;;;;;;31.27;14.13;;;2.70;99.70;;;;;;5009598;28;20442;-71
2021/03/19 07:41:13;;;;;;;29.93;14.57;;;2.90;99.70;;;;;;4994343;28;20998;-69
2021/03/19 07:44:02;;;;;;;33.10;15.30;;;3.70;99.70;;;;;;5011333;28;20512;-71
2021/03/19 07:46:38;;;;;;;36.10;16.10;;;3.10;99.70;;;;;;5006058;28;20942;-71
2021/03/19 07:49:29;;;;;;;32.03;15.77;;;3.00;99.70;;;;;;4989365;28;20477;-72
2021/03/19 07:52:06;;;;;;;32.13;16.43;;;3.10;99.70;;;;;;5004784;28;20470;-72
2021/03/19 07:54:43;;;;;;;32.07;15.87;;;3.00;99.70;;;;;;5008920;28;20450;-71
2021/03/19 07:57:20;;;;;;;35.30;17.17;;;3.20;99.70;;;;;;4997657;28;20521;-72
2021/03/19 07:59:54;;;;;;;35.17;16.67;;;3.10;99.70;;;;;;4988533;28;20488;-72
2021/03/19 08:02:44;;;;;;;35.40;16.33;;;3.40;99.70;;;;;;4989871;28;20528;-71
2021/03/19 08:05:21;;;;;;;29.33;14.50;;;3.60;99.70;;;;;;4992806;28;20959;-72
2021/03/19 08:07:54;;;;;;;41.63;20.10;;;4.10;99.70;;;;;;4995154;28;20484;-72
2021/03/19 08:10:25;;;;;;;37.50;16.47;;;3.90;99.70;;;;;;4989455;28;20520;-72
2021/03/19 08:12:59;;;;;;;33.47;16.40;;;3.60;99.70;;;;;;4998058;28;20513;-72
2021/03/19 08:15:33;;;;;;;35.73;15.70;;;3.30;99.70;;;;;;5005626;28;20453;-72
2021/03/19 08:18:07;;;;;;;40.73;18.57;;;3.00;99.70;;;;;;5005658;28;20453;-71
2021/03/19 08:20:53;;;;;;;38.63;18.37;;;3.20;99.70;;;;;;4996356;28;20491;-72
2021/03/19 08:23:29;;;;;;;31.60;16.00;;;3.90;99.70;;;;;;4999239;28;20458;-71
2021/03/19 08:25:56;;;;;;;36.70;16.53;;;4.20;99.70;;;;;;5002378;28;20450;-72
2021/03/19 08:28:31;;;;;;;29.63;14.70;;;4.10;99.70;;;;;;4988671;28;20956;-72
2021/03/19 08:31:08;;;;;;;34.53;15.47;;;3.90;99.70;;;;;;4989261;28;21020;-71
2021/03/19 08:33:47;;;;;;;35.87;17.90;;;4.20;99.70;;;;;;5002135;28;20449;-72
2021/03/19 08:36:24;;;;;;;34.53;15.93;;;3.90;99.70;;;;;;4997454;28;20454;-72
2021/03/19 08:38:53;;;;;;;39.30;17.87;;;3.80;99.70;;;;;;5007663;28;20457;-73
2021/03/19 08:41:23;;;;;;;37.40;16.57;;;3.70;99.70;;;;;;5008085;28;20477;-71
2021/03/19 08:43:52;;;;;;;32.87;15.97;;;3.70;99.70;;;;;;5007359;28;20456;-71
2021/03/19 08:46:23;;;;;;;38.30;17.47;;;3.60;99.70;;;;;;4997346;28;20462;-72
2021/03/19 08:48:54;;;;;;;39.03;18.03;;;3.60;99.70;;;;;;4998158;28;21038;-72
2021/03/19 08:51:35;;;;;;;39.83;17.57;;;3.50;99.70;;;;;;4995523;28;20454;-72
2021/03/19 08:54:16;;;;;;;38.03;18.13;;;3.60;99.70;;;;;;4988675;28;20437;-72
2021/03/19 08:56:45;;;;;;;35.60;15.10;;;3.70;99.70;;;;;;4986887;28;20450;-70
2021/03/19 08:59:32;;;;;;;37.83;16.43;;;3.60;99.70;;;;;;4999399;28;20481;-72
2021/03/19 09:01:59;;;;;;;31.63;14.30;;;3.50;99.70;;;;;;4988095;28;20959;-71
2021/03/19 09:05:05;;;;;;;40.60;17.00;;;3.40;99.70;;;;;;4995988;28;20453;-72
2021/03/19 09:07:35;;;;;;;31.00;13.80;;;3.60;99.70;;;;;;4988656;28;20457;-71
2021/03/19 09:10:07;;;;;;;31.37;14.13;;;3.50;99.70;;;;;;4991961;28;20470;-72
2021/03/19 09:13:09;;;;;;;35.17;16.17;;;3.70;99.70;;;;;;4990430;28;20499;-72
2021/03/19 09:15:37;;;;;;;30.27;14.43;;;3.30;99.70;;;;;;4994059;28;20559;-70
2021/03/19 09:18:07;;;;;;;34.97;15.40;;;3.50;99.70;;;;;;5007652;28;20437;-70
2021/03/19 09:21:05;;;;;;;32.20;14.63;;;3.40;99.70;;;;;;5003356;28;20485;-71
2021/03/19 09:23:55;;;;;;;32.40;14.03;;;3.40;99.70;;;;;;4996874;28;20449;-72
2021/03/19 09:26:42;;;;;;;33.67;15.47;;;3.30;99.70;;;;;;5007762;28;20452;-72
2021/03/19 09:29:34;;;;;;;32.67;13.80;;;3.30;99.70;;;;;;5007395;28;20461;-72
2021/03/19 09:32:36;;;;;;;31.13;14.17;;;3.50;99.70;;;;;;4999657;28;20949;-71
2021/03/19 09:35:32;;;;;;;27.90;12.47;;;3.60;99.70;;;;;;5010212;28;20456;-70
2021/03/19 09:37:59;;;;;;;27.63;12.57;;;3.60;99.70;;;;;;5011378;28;20542;-72
2021/03/19 09:40:41;;;;;;;29.00;12.87;;;3.50;99.70;;;;;;5010343;28;20466;-72
2021/03/19 09:43:09;;;;;;;26.43;12.33;;;3.60;99.70;;;;;;4996796;28;20468;-71
2021/03/19 09:45:47;;;;;;;30.67;13.13;;;3.60;99.70;;;;;;5003716;28;20540;-72
2021/03/19 09:48:35;;;;;;;26.10;12.30;;;3.80;99.70;;;;;;5004557;28;20695;-72
2021/03/19 09:51:30;;;;;;;31.10;13.30;;;3.60;99.70;;;;;;5009581;28;20445;-72
2021/03/19 09:53:56;;;;;;;31.00;12.47;;;3.50;99.70;;;;;;5010792;28;20446;-72
2021/03/19 09:56:29;;;;;;;28.53;12.60;;;3.50;99.70;;;;;;5011228;28;20453;-70
2021/03/19 09:58:57;;;;;;;30.80;12.97;;;3.60;99.70;;;;;;5010182;28;20846;-72
2021/03/19 10:01:33;;;;;;;27.17;11.90;;;3.90;99.70;;;;;;5011433;28;20840;-70
2021/03/19 10:04:02;;;;;;;25.23;11.17;;;4.00;99.70;;;;;;5011554;28;20453;-72
2021/03/19 10:06:33;;;;;;;25.37;11.80;;;3.90;99.70;;;;;;5010267;28;20453;-72
2021/03/19 10:09:08;;;;;;;25.77;12.47;;;4.00;99.70;;;;;;5006737;28;20698;-72
2021/03/19 10:11:34;;;;;;;26.63;11.80;;;3.90;99.70;;;;;;5010809;28;20861;-72
2021/03/19 10:14:15;;;;;;;29.60;12.67;;;4.00;99.70;;;;;;5011318;28;20442;-72
2021/03/19 10:16:41;;;;;;;25.83;11.60;;;3.90;99.70;;;;;;5003050;28;20481;-70
2021/03/19 10:19:14;;;;;;;24.97;11.40;;;3.90;99.70;;;;;;4997183;28;20609;-73
2021/03/19 10:21:47;;;;;;;22.47;10.37;;;3.90;99.70;;;;;;4995379;28;20488;-72
2021/03/19 10:24:14;;;;;;;23.90;11.70;;;4.00;99.70;;;;;;5001127;28;20450;-71
2021/03/19 10:26:49;;;;;;;22.37;10.70;;;3.80;99.70;;;;;;5010304;28;20522;-72
2021/03/19 10:29:22;;;;;;;27.03;11.40;;;4.10;99.70;;;;;;5011017;28;20519;-72
2021/03/19 10:31:51;;;;;;;22.83;10.90;;;4.40;99.70;;;;;;5009173;28;20457;-72
2021/03/19 10:34:25;;;;;;;23.73;11.07;;;4.80;99.70;;;;;;5010303;28;20453;-72
2021/03/19 10:36:57;;;;;;;20.50;9.37;;;4.90;99.70;;;;;;5007663;28;20442;-72
2021/03/19 10:39:30;;;;;;;19.97;8.90;;;5.40;99.70;;;;;;5010597;28;20453;-71
2021/03/19 10:42:08;;;;;;;17.93;8.90;;;5.50;99.70;;;;;;5009308;28;20555;-71
2021/03/19 10:44:42;;;;;;;20.20;9.90;;;5.70;99.70;;;;;;4998066;28;20445;-72
2021/03/19 10:47:12;;;;;;;14.83;7.47;;;5.60;99.70;;;;;;4997994;28;20470;-71
2021/03/19 10:49:45;;;;;;;15.30;7.70;;;5.70;99.70;;;;;;5001639;28;20485;-71
2021/03/19 10:52:20;;;;;;;16.27;7.63;;;5.60;99.70;;;;;;5000967;28;20430;-72
2021/03/19 10:54:49;;;;;;;14.90;7.30;;;5.40;99.70;;;;;;5000701;28;20548;-70
2021/03/19 10:57:23;;;;;;;14.43;6.87;;;5.60;99.70;;;;;;4987273;28;20484;-73
2021/03/19 10:59:52;;;;;;;13.13;6.60;;;5.50;99.70;;;;;;5008141;28;20469;-73
2021/03/19 11:02:21;;;;;;;12.10;6.60;;;5.00;99.70;;;;;;5007769;28;20495;-70
2021/03/19 11:05:08;;;;;;;13.97;7.10;;;4.90;99.70;;;;;;5007579;28;20473;-73
2021/03/19 11:07:37;;;;;;;13.40;6.80;;;4.90;99.70;;;;;;5008254;28;20446;-72
2021/03/19 11:10:14;;;;;;;14.70;7.37;;;5.10;99.70;;;;;;4998697;28;20769;-72
2021/03/19 11:12:42;;;;;;;15.47;7.93;;;5.00;99.70;;;;;;5009036;28;20449;-73
2021/03/19 11:15:12;;;;;;;14.67;7.43;;;4.80;99.70;;;;;;5009132;28;20907;-72
2021/03/19 11:17:39;;;;;;;20.30;8.70;;;4.50;99.70;;;;;;5008047;28;20446;-72
2021/03/19 11:20:10;;;;;;;17.60;8.37;;;4.30;99.70;;;;;;5003891;28;20861;-72
2021/03/19 11:22:39;;;;;;;16.20;8.20;;;4.10;99.70;;;;;;5001783;28;20489;-73
2021/03/19 11:25:23;;;;;;;15.93;7.73;;;4.20;99.70;;;;;;5000424;28;20446;-72
2021/03/19 11:27:51;;;;;;;15.33;7.37;;;4.10;99.70;;;;;;5008880;28;20981;-72
2021/03/19 11:30:29;;;;;;;19.00;8.20;;;4.30;99.70;;;;;;5010641;28;20472;-72
2021/03/19 11:33:01;;;;;;;19.50;8.20;;;4.20;99.70;;;;;;5010515;28;20449;-72
2021/03/19 11:35:28;;;;;;;13.47;6.77;;;4.30;99.70;;;;;;4999003;28;20472;-72
2021/03/19 11:37:54;;;;;;;14.83;6.50;;;4.20;99.70;;;;;;4995929;28;20458;-71
2021/03/19 11:40:38;;;;;;;14.40;6.90;;;3.90;99.70;;;;;;5001448;28;20990;-72
2021/03/19 11:43:07;;;;;;;14.53;6.73;;;3.90;99.70;;;;;;5002694;28;20454;-72
2021/03/19 11:45:36;;;;;;;12.17;6.00;;;3.70;99.70;;;;;;5002196;28;20502;-72
2021/03/19 11:48:28;;;;;;;10.67;6.10;;;3.70;99.70;;;;;;4993890;28;20718;-72
2021/03/19 11:51:08;;;;;;;11.57;6.27;;;3.70;99.70;;;;;;4999321;28;20473;-72
2021/03/19 11:53:34;;;;;;;11.90;6.00;;;3.70;99.70;;;;;;5008073;28;20452;-72
2021/03/19 11:56:00;;;;;;;11.47;6.30;;;3.90;99.70;;;;;;4996935;28;20986;-72
2021/03/19 11:58:30;;;;;;;12.40;6.30;;;4.00;99.70;;;;;;4988864;28;20462;-72
2021/03/19 12:00:57;;;;;;;14.13;6.70;;;3.90;99.70;;;;;;5000557;28;20892;-72
2021/03/19 12:03:31;;;;;;;12.83;6.23;;;4.00;99.70;;;;;;5009460;28;20858;-71
2021/03/19 12:06:01;;;;;;;15.20;6.67;;;4.10;99.70;;;;;;4996984;28;20507;-72
2021/03/19 12:08:28;;;;;;;12.50;6.57;;;4.30;99.70;;;;;;4989652;28;20478;-72
2021/03/19 12:10:54;;;;;;;12.70;6.73;;;4.20;99.70;;;;;;4999844;28;20504;-72
2021/03/19 12:13:20;;;;;;;14.67;7.00;;;4.50;99.70;;;;;;5009919;28;20452;-72
2021/03/19 12:15:49;;;;;;;14.93;7.20;;;4.50;99.70;;;;;;4997526;28;20454;-72
2021/03/19 12:18:16;;;;;;;14.80;7.20;;;4.50;99.70;;;;;;4995006;28;20450;-71
2021/03/19 12:20:43;;;;;;;18.80;8.00;;;4.70;99.70;;;;;;5008944;28;20481;-72
2021/03/19 12:23:10;;;;;;;15.53;7.83;;;4.80;99.70;;;;;;5007461;28;20442;-73
2021/03/19 12:25:38;;;;;;;16.10;7.90;;;4.40;99.70;;;;;;5000257;28;20443;-73
2021/03/19 12:28:05;;;;;;;15.37;7.57;;;4.30;99.70;;;;;;4992974;28;20528;-72
2021/03/19 12:30:32;;;;;;;19.13;8.73;;;4.10;99.70;;;;;;5008209;28;20474;-72
2021/03/19 12:32:58;;;;;;;14.40;6.90;;;4.00;99.70;;;;;;5006039;28;20489;-72
2021/03/19 12:35:27;;;;;;;16.47;6.97;;;4.10;99.70;;;;;;4995561;28;20464;-72
2021/03/19 12:37:53;;;;;;;18.80;9.00;;;4.10;99.70;;;;;;5007766;28;20457;-71
2021/03/19 12:40:22;;;;;;;17.83;8.00;;;4.00;99.70;;;;;;5007056;28;20712;-72
2021/03/19 12:42:48;;;;;;;18.90;7.73;;;4.00;99.70;;;;;;4988192;28;20486;-72
2021/03/19 12:45:16;;;;;;;17.90;8.17;;;3.90;99.70;;;;;;4990167;28;20469;-72
2021/03/19 12:47:43;;;;;;;19.57;8.90;;;3.90;99.70;;;;;;4991554;28;20470;-72
2021/03/19 12:50:10;;;;;;;17.53;8.20;;;3.90;99.70;;;;;;4997353;28;20525;-72
2021/03/19 12:52:36;;;;;;;22.00;9.23;;;4.00;99.70;;;;;;4998664;28;20446;-72
2021/03/19 12:55:04;;;;;;;17.03;7.50;;;4.00;99.70;;;;;;5008073;28;20504;-72
2021/03/19 12:57:31;;;;;;;20.10;9.07;;;4.00;99.70;;;;;;4996369;28;21180;-72
2021/03/19 12:59:57;;;;;;;20.37;8.80;;;4.00;99.70;;;;;;4993779;28;20470;-72
2021/03/19 13:02:24;;;;;;;19.20;8.80;;;4.10;99.70;;;;;;5003533;28;20488;-72
2021/03/19 13:04:50;;;;;;;20.57;9.13;;;4.30;99.70;;;;;;4989668;28;20446;-72
2021/03/19 13:07:17;;;;;;;18.73;8.33;;;4.30;99.70;;;;;;5008054;28;20445;-72
2021/03/19 13:09:43;;;;;;;19.30;8.43;;;4.30;99.70;;;;;;5012563;28;20994;-72
2021/03/19 13:12:09;;;;;;;17.37;7.67;;;4.20;99.70;;;;;;4998497;28;20442;-72